sensor_id;sensor_type;location;lat;lon;timestamp;P1;P2;P0
56360;PMS7003;42611;51.132;13.588;2024-03-23T01:02:06;27.3;24.2;
56360;PMS7003;42611;51.132;13.588;2024-03-23T01:07:01;27.4;24.7;
56360;PMS7003;42611;51.132;13.588;2024-03-23T01:12:01;26.0;23.4;
56360;PMS7003;42611;51.132;13.588;2024-03-23T01:17:11;27.7;25.1;
56360;PMS7003;42611;51.132;13.588;2024-03-23T01:22:01;27.8;25.4;
56360;PMS7003;42611;51.132;13.588;2024-03-23T01:27:01;26.2;23.9;
56360;PMS7003;42611;51.132;13.588;2024-03-23T01:32:06;27.0;24.5;
56360;PMS7003;42611;51.132;13.588;2024-03-23T01:37:06;27.1;25.0;
56360;PMS7003;42611;51.132;13.588;2024-03-23T01:43:21;26.4;24.5;
56360;PMS7003;42611;51.132;13.588;2024-03-23T01:48:01;25.3;23.2;
56360;PMS7003;42611;51.132;13.588;2024-03-23T01:53:02;25.4;23.4;
56360;PMS7003;42611;51.132;13.588;2024-03-23T02:04:11;26.3;23.9;
56360;PMS7003;42611;51.132;13.588;2024-03-23T02:08:01;27.1;24.6;
56360;PMS7003;42611;51.132;13.588;2024-03-23T02:13:07;28.3;26.0;
56360;PMS7003;42611;51.132;13.588;2024-03-23T02:18:08;28.9;27.0;
56360;PMS7003;42611;51.132;13.588;2024-03-23T02:23:01;31.2;29.0;
56360;PMS7003;42611;51.132;13.588;2024-03-23T02:28:01;32.8;30.0;
56360;PMS7003;42611;51.132;13.588;2024-03-23T02:33:07;33.8;30.5;
56360;PMS7003;42611;51.132;13.588;2024-03-23T02:38:11;35.0;31.1;
56360;PMS7003;42611;51.132;13.588;2024-03-23T02:43:26;36.3;31.5;
56360;PMS7003;42611;51.132;13.588;2024-03-23T02:48:01;37.5;32.0;
56360;PMS7003;42611;51.132;13.588;2024-03-23T02:53:01;35.8;30.7;
56360;PMS7003;42611;51.132;13.588;2024-03-23T02:58:06;34.8;30.0;
56360;PMS7003;42611;51.132;13.588;2024-03-23T03:03:11;36.3;30.9;
56360;PMS7003;42611;51.132;13.588;2024-03-23T03:08:01;36.1;30.9;
56360;PMS7003;42611;51.132;13.588;2024-03-23T03:13:01;34.2;29.8;
56360;PMS7003;42611;51.132;13.588;2024-03-23T03:18:01;36.8;31.6;
56360;PMS7003;42611;51.132;13.588;2024-03-23T03:23:01;39.0;32.7;
56360;PMS7003;42611;51.132;13.588;2024-03-23T03:28:01;39.6;33.3;
56360;PMS7003;42611;51.132;13.588;2024-03-23T03:33:01;39.4;33.2;
56360;PMS7003;42611;51.132;13.588;2024-03-23T03:38:01;37.9;32.6;
56360;PMS7003;42611;51.132;13.588;2024-03-23T03:43:03;37.0;32.0;
56360;PMS7003;42611;51.132;13.588;2024-03-23T03:48:02;34.4;30.4;
56360;PMS7003;42611;51.132;13.588;2024-03-23T03:53:16;31.9;28.5;
56360;PMS7003;42611;51.132;13.588;2024-03-23T03:58:06;34.4;29.8;
56360;PMS7003;42611;51.132;13.588;2024-03-23T04:03:02;37.0;31.1;
56360;PMS7003;42611;51.132;13.588;2024-03-23T04:08:01;37.5;31.5;
56360;PMS7003;42611;51.132;13.588;2024-03-23T04:13:01;39.2;33.0;
56360;PMS7003;42611;51.132;13.588;2024-03-23T04:18:01;39.5;33.6;
56360;PMS7003;42611;51.132;13.588;2024-03-23T04:23:01;39.4;33.3;
56360;PMS7003;42611;51.132;13.588;2024-03-23T04:28:07;40.4;34.1;
56360;PMS7003;42611;51.132;13.588;2024-03-23T04:33:01;42.4;35.2;
56360;PMS7003;42611;51.132;13.588;2024-03-23T04:38:01;42.8;35.1;
56360;PMS7003;42611;51.132;13.588;2024-03-23T04:43:01;43.4;35.4;
56360;PMS7003;42611;51.132;13.588;2024-03-23T04:53:07;42.3;35.1;
56360;PMS7003;42611;51.132;13.588;2024-03-23T04:58:01;41.4;34.2;
56360;PMS7003;42611;51.132;13.588;2024-03-23T05:03:07;42.0;35.3;
56360;PMS7003;42611;51.132;13.588;2024-03-23T05:08:06;43.4;35.8;
56360;PMS7003;42611;51.132;13.588;2024-03-23T05:13:06;42.1;34.9;
56360;PMS7003;42611;51.132;13.588;2024-03-23T05:18:06;42.8;35.2;
56360;PMS7003;42611;51.132;13.588;2024-03-23T05:23:11;41.9;35.0;
56360;PMS7003;42611;51.132;13.588;2024-03-23T05:28:01;41.3;33.8;
56360;PMS7003;42611;51.132;13.588;2024-03-23T05:33:01;41.7;34.3;
56360;PMS7003;42611;51.132;13.588;2024-03-23T05:38:01;43.2;35.4;
56360;PMS7003;42611;51.132;13.588;2024-03-23T05:43:01;43.0;35.2;
56360;PMS7003;42611;51.132;13.588;2024-03-23T05:48:06;43.9;35.7;
56360;PMS7003;42611;51.132;13.588;2024-03-23T05:53:01;45.8;37.4;
56360;PMS7003;42611;51.132;13.588;2024-03-23T05:58:01;46.8;37.8;
56360;PMS7003;42611;51.132;13.588;2024-03-23T06:03:11;47.2;38.2;
56360;PMS7003;42611;51.132;13.588;2024-03-23T06:08:02;48.9;39.6;
56360;PMS7003;42611;51.132;13.588;2024-03-23T06:13:01;50.0;40.5;
56360;PMS7003;42611;51.132;13.588;2024-03-23T06:18:06;49.7;40.0;
56360;PMS7003;42611;51.132;13.588;2024-03-23T06:23:01;50.7;41.0;
56360;PMS7003;42611;51.132;13.588;2024-03-23T06:28:01;50.1;40.7;
56360;PMS7003;42611;51.132;13.588;2024-03-23T06:33:01;49.6;40.4;
56360;PMS7003;42611;51.132;13.588;2024-03-23T06:38:01;50.0;40.4;
56360;PMS7003;42611;51.132;13.588;2024-03-23T06:43:01;50.8;41.3;
56360;PMS7003;42611;51.132;13.588;2024-03-23T06:48:01;50.2;40.9;
56360;PMS7003;42611;51.132;13.588;2024-03-23T06:53:06;51.1;41.7;
56360;PMS7003;42611;51.132;13.588;2024-03-23T06:58:06;51.2;41.4;
56360;PMS7003;42611;51.132;13.588;2024-03-23T07:03:01;50.2;40.5;
56360;PMS7003;42611;51.132;13.588;2024-03-23T07:08:06;49.8;40.4;
56360;PMS7003;42611;51.132;13.588;2024-03-23T07:13:12;49.4;40.1;
56360;PMS7003;42611;51.132;13.588;2024-03-23T07:18:06;48.0;38.8;
56360;PMS7003;42611;51.132;13.588;2024-03-23T07:23:01;48.1;39.0;
56360;PMS7003;42611;51.132;13.588;2024-03-23T07:28:05;49.0;40.2;
56360;PMS7003;42611;51.132;13.588;2024-03-23T07:33:01;50.5;40.9;
56360;PMS7003;42611;51.132;13.588;2024-03-23T07:38:10;51.4;41.3;
56360;PMS7003;42611;51.132;13.588;2024-03-23T07:43:12;52.8;42.4;
56360;PMS7003;42611;51.132;13.588;2024-03-23T07:48:01;50.9;41.4;
56360;PMS7003;42611;51.132;13.588;2024-03-23T07:58:06;50.6;41.3;
56360;PMS7003;42611;51.132;13.588;2024-03-23T08:03:01;50.5;41.4;
56360;PMS7003;42611;51.132;13.588;2024-03-23T08:08:01;50.8;41.5;
56360;PMS7003;42611;51.132;13.588;2024-03-23T08:13:01;53.6;43.4;
56360;PMS7003;42611;51.132;13.588;2024-03-23T08:18:11;53.7;43.0;
56360;PMS7003;42611;51.132;13.588;2024-03-23T08:23:11;52.9;42.9;
56360;PMS7003;42611;51.132;13.588;2024-03-23T08:28:07;52.5;42.2;
56360;PMS7003;42611;51.132;13.588;2024-03-23T08:33:02;52.4;42.4;
56360;PMS7003;42611;51.132;13.588;2024-03-23T08:38:01;52.2;42.2;
56360;PMS7003;42611;51.132;13.588;2024-03-23T08:43:01;51.2;41.6;
56360;PMS7003;42611;51.132;13.588;2024-03-23T08:48:01;49.9;40.8;
56360;PMS7003;42611;51.132;13.588;2024-03-23T09:15:02;45.2;37.6;
56360;PMS7003;42611;51.132;13.588;2024-03-23T09:20:02;43.7;36.0;
56360;PMS7003;42611;51.132;13.588;2024-03-23T09:25:01;41.1;34.7;
56360;PMS7003;42611;51.132;13.588;2024-03-23T09:30:02;38.8;33.5;
56360;PMS7003;42611;51.132;13.588;2024-03-23T09:35:01;36.2;32.0;
56360;PMS7003;42611;51.132;13.588;2024-03-23T09:40:01;32.6;29.8;
56360;PMS7003;42611;51.132;13.588;2024-03-23T09:45:02;25.6;24.1;
56360;PMS7003;42611;51.132;13.588;2024-03-23T09:50:02;19.2;18.4;
56360;PMS7003;42611;51.132;13.588;2024-03-23T09:55:04;13.4;13.1;
56360;PMS7003;42611;51.132;13.588;2024-03-23T10:00:02;9.5;8.3;
56360;PMS7003;42611;51.132;13.588;2024-03-23T10:05:02;4.1;2.9;
56360;PMS7003;42611;51.132;13.588;2024-03-23T10:10:11;2.7;1.8;
56360;PMS7003;42611;51.132;13.588;2024-03-23T10:15:01;2.0;1.0;
56360;PMS7003;42611;51.132;13.588;2024-03-23T10:20:01;1.3;0.4;
56360;PMS7003;42611;51.132;13.588;2024-03-23T10:45:04;0.7;0.3;
56360;PMS7003;42611;51.132;13.588;2024-03-23T10:50:01;0.9;0.5;
56360;PMS7003;42611;51.132;13.588;2024-03-23T10:55:02;0.8;0.4;
56360;PMS7003;42611;51.132;13.588;2024-03-23T11:00:03;0.8;0.4;
56360;PMS7003;42611;51.132;13.588;2024-03-23T11:10:01;0.4;0.2;
56360;PMS7003;42611;51.132;13.588;2024-03-23T11:15:05;0.2;0.0;
56360;PMS7003;42611;51.132;13.588;2024-03-23T11:55:05;3.0;2.3;
56360;PMS7003;42611;51.132;13.588;2024-03-23T12:00:02;4.0;3.3;
56360;PMS7003;42611;51.132;13.588;2024-03-23T12:05:13;4.6;3.9;
56360;PMS7003;42611;51.132;13.588;2024-03-23T12:10:03;5.6;4.9;
56360;PMS7003;42611;51.132;13.588;2024-03-23T12:15:04;7.0;6.3;
56360;PMS7003;42611;51.132;13.588;2024-03-23T12:20:01;4.8;4.6;
56360;PMS7003;42611;51.132;13.588;2024-03-23T12:25:01;4.2;4.0;
56360;PMS7003;42611;51.132;13.588;2024-03-23T12:30:02;4.1;3.9;
56360;PMS7003;42611;51.132;13.588;2024-03-23T12:35:01;3.5;3.3;
56360;PMS7003;42611;51.132;13.588;2024-03-23T12:40:01;2.8;2.4;
56360;PMS7003;42611;51.132;13.588;2024-03-23T12:45:02;2.4;2.2;
56360;PMS7003;42611;51.132;13.588;2024-03-23T12:50:01;3.0;2.9;
56360;PMS7003;42611;51.132;13.588;2024-03-23T12:55:01;3.5;3.4;
56360;PMS7003;42611;51.132;13.588;2024-03-23T13:00:02;4.5;4.4;
56360;PMS7003;42611;51.132;13.588;2024-03-23T13:05:01;5.2;4.9;
56360;PMS7003;42611;51.132;13.588;2024-03-23T13:10:01;5.5;5.2;
56360;PMS7003;42611;51.132;13.588;2024-03-23T13:15:04;5.7;5.0;
56360;PMS7003;42611;51.132;13.588;2024-03-23T13:20:02;5.4;4.7;
56360;PMS7003;42611;51.132;13.588;2024-03-23T13:25:02;4.6;3.9;
56360;PMS7003;42611;51.132;13.588;2024-03-23T13:30:02;4.2;3.7;
56360;PMS7003;42611;51.132;13.588;2024-03-23T13:35:01;4.5;3.6;
56360;PMS7003;42611;51.132;13.588;2024-03-23T13:40:03;3.8;3.2;
56360;PMS7003;42611;51.132;13.588;2024-03-23T13:45:02;3.8;3.1;
56360;PMS7003;42611;51.132;13.588;2024-03-23T13:50:01;3.6;2.8;
56360;PMS7003;42611;51.132;13.588;2024-03-23T13:55:01;3.0;2.5;
56360;PMS7003;42611;51.132;13.588;2024-03-23T14:00:02;3.3;2.6;
56360;PMS7003;42611;51.132;13.588;2024-03-23T14:05:02;3.4;2.7;
56360;PMS7003;42611;51.132;13.588;2024-03-23T14:10:03;3.1;2.6;
56360;PMS7003;42611;51.132;13.588;2024-03-23T14:15:05;3.4;2.9;
56360;PMS7003;42611;51.132;13.588;2024-03-23T14:20:13;3.1;2.6;
56360;PMS7003;42611;51.132;13.588;2024-03-23T14:25:02;2.4;2.3;
56360;PMS7003;42611;51.132;13.588;2024-03-23T14:30:06;2.5;2.4;
56360;PMS7003;42611;51.132;13.588;2024-03-23T14:35:01;2.9;2.5;
56360;PMS7003;42611;51.132;13.588;2024-03-23T14:40:01;3.0;2.6;
56360;PMS7003;42611;51.132;13.588;2024-03-23T14:45:02;3.4;3.0;
56360;PMS7003;42611;51.132;13.588;2024-03-23T14:50:01;4.1;3.4;
56360;PMS7003;42611;51.132;13.588;2024-03-23T14:55:01;4.0;3.3;
56360;PMS7003;42611;51.132;13.588;2024-03-23T15:00:02;3.7;3.3;
56360;PMS7003;42611;51.132;13.588;2024-03-23T15:05:07;4.0;3.4;
56360;PMS7003;42611;51.132;13.588;2024-03-23T15:10:01;4.3;3.5;
56360;PMS7003;42611;51.132;13.588;2024-03-23T15:15:02;3.7;3.2;
56360;PMS7003;42611;51.132;13.588;2024-03-23T15:30:02;4.0;3.0;
56360;PMS7003;42611;51.132;13.588;2024-03-23T15:35:01;4.1;3.2;
56360;PMS7003;42611;51.132;13.588;2024-03-23T15:45:08;3.9;3.2;
56360;PMS7003;42611;51.132;13.588;2024-03-23T15:50:02;4.5;3.7;
56360;PMS7003;42611;51.132;13.588;2024-03-23T15:55:04;4.0;3.8;
56360;PMS7003;42611;51.132;13.588;2024-03-23T16:00:02;4.4;4.1;
56360;PMS7003;42611;51.132;13.588;2024-03-23T16:05:07;5.7;5.1;
56360;PMS7003;42611;51.132;13.588;2024-03-23T16:10:02;6.6;6.0;
56360;PMS7003;42611;51.132;13.588;2024-03-23T16:15:01;6.6;6.1;
56360;PMS7003;42611;51.132;13.588;2024-03-23T16:20:21;7.1;6.7;
56360;PMS7003;42611;51.132;13.588;2024-03-23T16:25:01;6.7;6.4;
56360;PMS7003;42611;51.132;13.588;2024-03-23T16:30:13;5.6;5.6;
56360;PMS7003;42611;51.132;13.588;2024-03-23T16:35:01;5.3;5.3;
56360;PMS7003;42611;51.132;13.588;2024-03-23T16:40:01;4.7;4.7;
56360;PMS7003;42611;51.132;13.588;2024-03-23T16:45:11;4.4;4.2;
56360;PMS7003;42611;51.132;13.588;2024-03-23T16:50:01;4.5;4.2;
56360;PMS7003;42611;51.132;13.588;2024-03-23T17:00:07;4.6;4.2;
56360;PMS7003;42611;51.132;13.588;2024-03-23T17:05:11;5.4;5.0;
56360;PMS7003;42611;51.132;13.588;2024-03-23T17:10:01;5.8;5.6;
56360;PMS7003;42611;51.132;13.588;2024-03-23T17:15:17;5.9;5.8;
56360;PMS7003;42611;51.132;13.588;2024-03-23T17:20:01;6.2;6.1;
56360;PMS7003;42611;51.132;13.588;2024-03-23T17:25:01;6.5;6.4;
56360;PMS7003;42611;51.132;13.588;2024-03-23T17:30:02;6.6;6.6;
56360;PMS7003;42611;51.132;13.588;2024-03-23T17:35:06;6.9;6.8;
56360;PMS7003;42611;51.132;13.588;2024-03-23T17:40:01;7.7;7.4;
56360;PMS7003;42611;51.132;13.588;2024-03-23T17:45:02;8.2;7.9;
56360;PMS7003;42611;51.132;13.588;2024-03-23T17:55:01;8.6;8.1;
56360;PMS7003;42611;51.132;13.588;2024-03-23T18:00:02;8.1;7.7;
56360;PMS7003;42611;51.132;13.588;2024-03-23T18:05:02;7.6;7.4;
56360;PMS7003;42611;51.132;13.588;2024-03-23T18:10:01;7.2;7.0;
56360;PMS7003;42611;51.132;13.588;2024-03-23T18:15:02;7.7;7.3;
56360;PMS7003;42611;51.132;13.588;2024-03-23T18:25:26;8.8;8.4;
56360;PMS7003;42611;51.132;13.588;2024-03-23T18:30:12;10.3;9.5;
56360;PMS7003;42611;51.132;13.588;2024-03-23T18:35:02;11.6;10.7;
56360;PMS7003;42611;51.132;13.588;2024-03-23T18:40:02;12.3;11.6;
56360;PMS7003;42611;51.132;13.588;2024-03-23T18:45:02;12.5;11.7;
56360;PMS7003;42611;51.132;13.588;2024-03-23T18:50:06;12.8;12.0;
56360;PMS7003;42611;51.132;13.588;2024-03-23T18:55:02;12.6;11.9;
56360;PMS7003;42611;51.132;13.588;2024-03-23T19:00:02;13.2;12.3;
56360;PMS7003;42611;51.132;13.588;2024-03-23T19:05:01;14.6;12.5;
56360;PMS7003;42611;51.132;13.588;2024-03-23T19:10:02;15.4;12.7;
56360;PMS7003;42611;51.132;13.588;2024-03-23T19:15:01;15.7;12.3;
56360;PMS7003;42611;51.132;13.588;2024-03-23T19:20:06;15.2;12.0;
56360;PMS7003;42611;51.132;13.588;2024-03-23T19:25:06;15.4;12.3;
56360;PMS7003;42611;51.132;13.588;2024-03-23T19:30:07;15.6;13.2;
56360;PMS7003;42611;51.132;13.588;2024-03-23T19:35:01;16.5;14.2;
56360;PMS7003;42611;51.132;13.588;2024-03-23T19:40:01;17.3;15.4;
56360;PMS7003;42611;51.132;13.588;2024-03-23T19:45:02;18.7;16.4;
56360;PMS7003;42611;51.132;13.588;2024-03-23T19:50:02;19.9;16.4;
56360;PMS7003;42611;51.132;13.588;2024-03-23T19:55:16;18.6;15.6;
56360;PMS7003;42611;51.132;13.588;2024-03-23T20:00:02;18.3;15.1;
56360;PMS7003;42611;51.132;13.588;2024-03-23T20:05:01;18.0;14.5;
56360;PMS7003;42611;51.132;13.588;2024-03-23T20:10:01;17.0;14.0;
56360;PMS7003;42611;51.132;13.588;2024-03-23T20:15:11;15.3;13.1;
56360;PMS7003;42611;51.132;13.588;2024-03-23T20:20:02;14.4;12.2;
56360;PMS7003;42611;51.132;13.588;2024-03-23T20:25:11;13.1;11.6;
56360;PMS7003;42611;51.132;13.588;2024-03-23T20:30:12;11.2;10.4;
56360;PMS7003;42611;51.132;13.588;2024-03-23T20:35:01;10.1;9.2;
56360;PMS7003;42611;51.132;13.588;2024-03-23T20:40:01;8.3;7.8;
56360;PMS7003;42611;51.132;13.588;2024-03-23T20:45:02;7.8;7.2;
56360;PMS7003;42611;51.132;13.588;2024-03-23T20:50:07;6.9;6.2;
56360;PMS7003;42611;51.132;13.588;2024-03-23T20:55:01;7.0;6.3;
56360;PMS7003;42611;51.132;13.588;2024-03-23T21:00:07;7.1;6.3;
56360;PMS7003;42611;51.132;13.588;2024-03-23T21:05:01;7.3;6.7;
56360;PMS7003;42611;51.132;13.588;2024-03-23T21:10:01;6.5;6.1;
56360;PMS7003;42611;51.132;13.588;2024-03-23T21:15:02;6.5;6.3;
56360;PMS7003;42611;51.132;13.588;2024-03-23T21:25:01;6.1;5.9;
56360;PMS7003;42611;51.132;13.588;2024-03-23T21:30:02;6.2;6.0;
56360;PMS7003;42611;51.132;13.588;2024-03-23T21:35:01;7.0;6.8;
56360;PMS7003;42611;51.132;13.588;2024-03-23T21:40:06;7.3;7.0;
56360;PMS7003;42611;51.132;13.588;2024-03-23T21:45:09;8.2;7.4;
56360;PMS7003;42611;51.132;13.588;2024-03-23T21:50:01;7.8;7.1;
56360;PMS7003;42611;51.132;13.588;2024-03-23T21:55:01;8.2;7.4;
56360;PMS7003;42611;51.132;13.588;2024-03-23T22:00:02;8.3;7.6;
56360;PMS7003;42611;51.132;13.588;2024-03-23T22:05:01;8.4;7.6;
56360;PMS7003;42611;51.132;13.588;2024-03-23T22:10:01;8.0;7.6;
56360;PMS7003;42611;51.132;13.588;2024-03-23T22:15:02;8.4;8.0;
56360;PMS7003;42611;51.132;13.588;2024-03-23T22:20:16;8.8;8.2;
56360;PMS7003;42611;51.132;13.588;2024-03-23T22:25:02;8.6;8.0;
56360;PMS7003;42611;51.132;13.588;2024-03-23T22:30:02;8.4;7.9;
56360;PMS7003;42611;51.132;13.588;2024-03-23T22:40:01;7.8;7.4;
56360;PMS7003;42611;51.132;13.588;2024-03-23T22:45:02;7.2;7.1;
56360;PMS7003;42611;51.132;13.588;2024-03-23T22:55:01;6.8;6.7;
56360;PMS7003;42611;51.132;13.588;2024-03-23T23:00:02;7.4;6.5;
56360;PMS7003;42611;51.132;13.588;2024-03-23T23:06:02;7.2;6.4;
56360;PMS7003;42611;51.132;13.588;2024-03-23T23:11:16;7.6;6.2;
56360;PMS7003;42611;51.132;13.588;2024-03-23T23:16:01;7.5;6.2;
56360;PMS7003;42611;51.132;13.588;2024-03-23T23:21:01;8.0;6.2;
56360;PMS7003;42611;51.132;13.588;2024-03-23T23:26:06;7.7;6.2;
56360;PMS7003;42611;51.132;13.588;2024-03-23T23:31:11;7.8;6.2;
56360;PMS7003;42611;51.132;13.588;2024-03-23T23:36:01;7.5;6.1;
56360;PMS7003;42611;51.132;13.588;2024-03-23T23:41:06;7.6;6.2;
56360;PMS7003;42611;51.132;13.588;2024-03-23T23:46:02;7.0;5.6;
56360;PMS7003;42611;51.132;13.588;2024-03-23T23:51:01;6.8;5.8;
56360;PMS7003;42611;51.132;13.588;2024-03-23T23:56:01;6.9;5.7;
